Time;durP1;ratioP1;P1;durP2;ratioP2;P2;SDS_P1;SDS_P2;PMS_P1;PMS_P2;Temp;Humidity;BMP_temperature;BMP_pressure;BME280_temperature;BME280_humidity;BME280_pressure;Samples;Min_cycle;Max_cycle;Signal;HPM_P1;HPM_P2
2021/03/06 00:02:06;;;;;;;4.43;2.20;;;;;;;-0.63;42.18;102896.81;7795576;29;20412;-67
2021/03/06 00:05:56;;;;;;;3.97;2.13;;;;;;;-0.68;42.11;102891.59;7791558;29;20039;-71
2021/03/06 00:09:47;;;;;;;3.28;2.05;;;;;;;-0.67;42.08;102895.91;7805235;29;20671;-69
2021/03/06 00:13:38;;;;;;;4.10;2.05;;;;;;;-0.71;41.79;102896.72;7818333;29;20098;-67
2021/03/06 00:17:28;;;;;;;3.75;2.30;;;;;;;-0.74;42.13;102901.88;7795344;29;20089;-68
2021/03/06 00:21:19;;;;;;;5.55;2.85;;;;;;;-0.76;42.27;102906.13;7792023;29;20044;-68
2021/03/06 00:25:12;;;;;;;4.28;2.47;;;;;;;-0.78;42.02;102914.72;7790699;29;20051;-69
2021/03/06 00:29:03;;;;;;;5.97;2.78;;;;;;;-0.82;41.80;102912.06;7792014;29;20422;-70
2021/03/06 00:32:54;;;;;;;4.25;2.30;;;;;;;-0.85;41.86;102913.75;7791083;29;20452;-68
2021/03/06 00:36:45;;;;;;;3.67;2.03;;;;;;;-0.89;42.57;102914.53;7790351;29;20039;-68
2021/03/06 00:40:35;;;;;;;7.22;2.60;;;;;;;-0.93;42.39;102905.03;7791580;29;20512;-68
2021/03/06 00:44:26;;;;;;;7.72;3.03;;;;;;;-0.95;42.33;102919.63;7791794;29;20054;-70
2021/03/06 00:48:16;;;;;;;4.85;2.72;;;;;;;-0.99;41.88;102923.03;7789602;29;20048;-68
2021/03/06 00:52:07;;;;;;;3.88;2.60;;;;;;;-1.00;42.41;102916.13;7789624;29;20040;-68
2021/03/06 00:55:58;;;;;;;3.65;2.33;;;;;;;-1.04;42.09;102919.50;7791629;29;20036;-68
2021/03/06 00:59:49;;;;;;;3.00;1.98;;;;;;;-1.07;42.47;102925.50;7790070;29;20054;-71
2021/03/06 01:03:40;;;;;;;11.85;2.80;;;;;;;-1.09;42.60;102918.56;7817091;29;20051;-69
2021/03/06 01:07:31;;;;;;;7.93;2.28;;;;;;;-1.13;42.52;102912.50;7795287;29;20044;-68
2021/03/06 01:11:21;;;;;;;4.25;2.47;;;;;;;-1.15;42.06;102913.31;7790621;29;20417;-69
2021/03/06 01:15:12;;;;;;;8.77;3.17;;;;;;;-1.19;42.53;102911.56;7790140;29;20066;-69
2021/03/06 01:19:03;;;;;;;6.03;2.78;;;;;;;-1.21;42.51;102901.19;7814247;28;20032;-69
2021/03/06 01:22:55;;;;;;;3.15;2.22;;;;;;;-1.25;42.54;102896.84;7791125;29;20122;-70
2021/03/06 01:26:46;;;;;;;3.88;2.30;;;;;;;-1.29;42.54;102895.06;7790488;29;20382;-68
2021/03/06 01:30:36;;;;;;;3.10;2.25;;;;;;;-1.28;42.21;102899.38;7789954;29;20802;-66
2021/03/06 01:34:27;;;;;;;3.17;2.00;;;;;;;-1.32;42.40;102902.75;7790286;29;20528;-65
2021/03/06 01:38:18;;;;;;;4.47;2.28;;;;;;;-1.35;42.49;102894.94;7791047;29;20519;-69
2021/03/06 01:42:09;;;;;;;4.95;2.60;;;;;;;-1.36;42.68;102888.09;7790546;29;20035;-65
2021/03/06 01:46:00;;;;;;;4.78;2.40;;;;;;;-1.41;42.61;102892.28;7789900;29;20107;-68
2021/03/06 01:49:50;;;;;;;5.53;2.47;;;;;;;-1.43;42.66;102894.84;7772885;29;20044;-66
2021/03/06 01:53:42;;;;;;;4.28;2.58;;;;;;;-1.46;42.73;102888.78;7789225;29;20429;-66
2021/03/06 01:57:32;;;;;;;6.10;2.38;;;;;;;-1.47;42.63;102889.59;7790046;29;20703;-68
2021/03/06 02:01:23;;;;;;;4.47;2.72;;;;;;;-1.52;42.90;102899.84;7789136;29;20043;-67
2021/03/06 02:05:14;;;;;;;5.30;3.15;;;;;;;-1.54;42.98;102892.94;7790299;29;20043;-66
2021/03/06 02:09:05;;;;;;;6.80;2.92;;;;;;;-1.60;42.78;102885.97;7789551;29;20040;-66
2021/03/06 02:13:21;;;;;;;7.53;3.67;;;;;;;-1.63;42.94;102890.22;7789758;29;20152;-67
2021/03/06 02:17:22;;;;;;;8.60;4.45;;;;;;;-1.64;42.90;102894.50;7790675;29;20115;-70
2021/03/06 02:21:47;;;;;;;9.98;5.63;;;;;;;-1.70;42.56;102884.09;7800893;29;20048;-71
2021/03/06 02:26:03;;;;;;;10.70;5.82;;;;;;;-1.71;43.03;102884.06;7788575;29;20036;-68
2021/03/06 02:30:01;;;;;;;10.00;5.00;;;;;;;-1.76;43.25;102881.41;7789273;29;20067;-69
2021/03/06 02:34:05;;;;;;;12.05;6.00;;;;;;;-1.78;43.13;102886.56;7794078;29;20040;-69
2021/03/06 02:38:00;;;;;;;10.07;5.65;;;;;;;-1.82;43.11;102879.63;7795197;29;20036;-69
2021/03/06 02:41:52;;;;;;;11.90;6.45;;;;;;;-1.83;43.09;102889.88;7794788;29;20042;-69
2021/03/06 02:45:43;;;;;;;10.95;6.13;;;;;;;-1.86;43.23;102877.84;7794393;29;20079;-68
2021/03/06 02:49:35;;;;;;;9.60;5.80;;;;;;;-1.93;43.06;102862.22;7794408;29;20047;-70
2021/03/06 02:53:25;;;;;;;10.45;5.47;;;;;;;-1.90;43.06;102882.91;7794785;29;20044;-68
2021/03/06 02:57:31;;;;;;;13.20;6.20;;;;;;;-1.92;43.53;102893.16;7813370;29;20035;-68
2021/03/06 03:01:46;;;;;;;10.32;6.25;;;;;;;-1.96;43.07;102888.81;7803625;29;20133;-69
2021/03/06 03:05:46;;;;;;;10.30;5.40;;;;;;;-2.01;43.21;102879.25;7793249;29;20123;-71
2021/03/06 03:09:42;;;;;;;12.05;6.43;;;;;;;-2.01;43.27;102884.41;7792233;29;20375;-68
2021/03/06 03:13:35;;;;;;;12.25;6.15;;;;;;;-2.04;43.39;102890.38;7793936;29;20043;-68
2021/03/06 03:17:38;;;;;;;10.52;5.88;;;;;;;-2.06;43.65;102886.88;7799790;29;20043;-68
2021/03/06 03:21:32;;;;;;;14.20;5.57;;;;;;;-2.08;43.62;102893.72;7794297;29;20452;-68
2021/03/06 03:25:27;;;;;;;7.43;4.80;;;;;;;-2.09;43.82;102896.28;7793492;29;20119;-68
2021/03/06 03:29:18;;;;;;;9.40;4.85;;;;;;;-2.11;43.62;102901.41;7793328;29;20094;-67
2021/03/06 03:33:11;;;;;;;9.07;4.88;;;;;;;-2.17;43.82;102890.13;7792061;29;20160;-67
2021/03/06 03:37:03;;;;;;;9.85;4.70;;;;;;;-2.14;43.84;102900.50;7792560;29;20499;-68
2021/03/06 03:40:55;;;;;;;9.00;4.70;;;;;;;-2.16;43.80;102908.19;7792609;29;20032;-69
2021/03/06 03:44:45;;;;;;;10.38;5.25;;;;;;;-2.17;43.71;102903.00;7793090;29;20063;-68
2021/03/06 03:48:38;;;;;;;8.02;4.25;;;;;;;-2.21;43.66;102902.06;7792851;29;20622;-71
2021/03/06 03:52:29;;;;;;;8.98;4.18;;;;;;;-2.23;43.72;102899.44;7792649;29;20040;-68
2021/03/06 03:56:20;;;;;;;8.32;4.32;;;;;;;-2.26;44.08;102896.81;7793140;29;20036;-67
2021/03/06 04:00:13;;;;;;;7.03;3.53;;;;;;;-2.26;43.83;102898.53;7790475;29;20740;-68
2021/03/06 04:04:05;;;;;;;7.38;3.55;;;;;;;-2.28;44.03;102897.66;7792705;29;20036;-68
2021/03/06 04:07:56;;;;;;;6.57;3.55;;;;;;;-2.32;44.12;102895.84;7792154;29;20044;-67
2021/03/06 04:11:47;;;;;;;6.50;4.13;;;;;;;-2.34;43.96;102894.94;7790788;29;20050;-70
2021/03/06 04:15:37;;;;;;;8.40;3.55;;;;;;;-2.36;43.82;102904.34;7811541;29;20114;-70
2021/03/06 04:19:28;;;;;;;6.65;3.55;;;;;;;-2.38;43.85;102904.31;7821934;29;20030;-68
2021/03/06 04:23:18;;;;;;;8.68;3.67;;;;;;;-2.41;43.73;102904.25;7820777;29;20035;-67
2021/03/06 04:27:09;;;;;;;7.35;4.07;;;;;;;-2.44;44.02;102904.22;7821851;29;20058;-68
2021/03/06 04:30:59;;;;;;;7.93;4.97;;;;;;;-2.45;43.73;102906.75;7819731;29;20110;-71
2021/03/06 04:34:50;;;;;;;5.88;3.72;;;;;;;-2.49;43.67;102907.53;7821749;29;20458;-68
2021/03/06 04:38:41;;;;;;;5.53;3.83;;;;;;;-2.51;43.92;102911.75;7821975;29;20144;-67
2021/03/06 04:42:31;;;;;;;8.88;4.60;;;;;;;-2.54;43.97;102910.00;7820337;29;20039;-67
2021/03/06 04:46:22;;;;;;;6.95;3.58;;;;;;;-2.54;43.81;102917.72;7816765;29;20036;-71
2021/03/06 04:50:14;;;;;;;6.40;3.67;;;;;;;-2.57;43.99;102915.09;7815649;29;20042;-67
2021/03/06 04:54:04;;;;;;;9.93;4.32;;;;;;;-2.61;43.84;102908.16;7816995;29;20050;-71
2021/03/06 04:57:55;;;;;;;5.60;3.30;;;;;;;-2.62;43.80;102911.56;7791761;29;20070;-67
2021/03/06 05:01:45;;;;;;;5.93;3.15;;;;;;;-2.61;44.20;102920.13;7790508;29;20444;-68
2021/03/06 05:05:36;;;;;;;6.00;3.28;;;;;;;-2.63;44.34;102916.66;7791450;29;20040;-67
2021/03/06 05:09:27;;;;;;;5.95;3.08;;;;;;;-2.74;44.25;102901.88;7789698;29;20499;-66
2021/03/06 05:13:17;;;;;;;5.75;4.03;;;;;;;-2.70;44.52;102906.25;7790694;29;20110;-69
2021/03/06 05:17:08;;;;;;;4.30;3.33;;;;;;;-2.68;44.21;102916.56;7793252;29;20432;-69
2021/03/06 05:20:59;;;;;;;5.47;3.25;;;;;;;-2.70;44.40;102918.25;7811455;29;20036;-68
2021/03/06 05:24:49;;;;;;;6.93;3.30;;;;;;;-2.75;44.57;102909.56;7790962;29;20064;-69
2021/03/06 05:28:40;;;;;;;4.53;2.80;;;;;;;-2.75;44.37;102912.13;7789547;29;20032;-67
2021/03/06 05:32:30;;;;;;;8.60;3.28;;;;;;;-2.75;44.58;102919.84;7789361;29;20036;-67
2021/03/06 05:36:21;;;;;;;6.63;3.38;;;;;;;-2.79;44.32;102924.06;7793334;29;20050;-67
2021/03/06 05:40:12;;;;;;;4.95;2.70;;;;;;;-2.80;44.67;102924.88;7807148;29;20024;-69
2021/03/06 05:44:03;;;;;;;5.07;2.92;;;;;;;-2.80;44.44;102931.72;7790519;29;20036;-67
2021/03/06 05:47:57;;;;;;;5.03;3.28;;;;;;;-2.83;44.45;102922.25;7790027;29;20119;-67
2021/03/06 05:51:48;;;;;;;4.75;3.08;;;;;;;-2.84;44.19;102929.94;7788287;29;20044;-68
2021/03/06 05:55:41;;;;;;;7.20;2.83;;;;;;;-2.86;44.52;102926.47;7790512;29;20040;-69
2021/03/06 05:59:33;;;;;;;5.70;3.03;;;;;;;-2.88;44.44;102934.13;7789911;29;20039;-70
2021/03/06 06:03:24;;;;;;;7.80;3.05;;;;;;;-2.88;44.52;102928.13;7788907;29;20457;-68
2021/03/06 06:07:16;;;;;;;7.68;3.55;;;;;;;-2.91;44.88;102931.50;7792400;29;20051;-69
2021/03/06 06:11:07;;;;;;;6.70;3.28;;;;;;;-2.90;44.62;102932.38;7794912;29;20032;-70
2021/03/06 06:14:57;;;;;;;10.52;3.78;;;;;;;-2.91;44.91;102934.09;7795967;29;20849;-67
2021/03/06 06:18:52;;;;;;;10.68;4.07;;;;;;;-2.94;44.66;102928.88;7822207;29;20046;-67
2021/03/06 06:22:43;;;;;;;7.22;3.90;;;;;;;-2.92;44.72;102932.34;7809933;29;20400;-69
2021/03/06 06:26:34;;;;;;;6.15;3.75;;;;;;;-2.91;44.90;102934.09;7795180;29;20500;-69
2021/03/06 06:30:25;;;;;;;7.13;4.25;;;;;;;-2.89;44.55;102932.38;7792692;29;20058;-67
2021/03/06 06:34:15;;;;;;;7.07;3.63;;;;;;;-2.86;45.21;102941.91;7795071;29;20385;-67
2021/03/06 06:38:07;;;;;;;6.85;3.72;;;;;;;-2.88;44.88;102936.72;7794525;29;20028;-70
2021/03/06 06:42:00;;;;;;;6.63;3.35;;;;;;;-2.81;45.09;102958.31;7795134;29;20039;-69
2021/03/06 06:45:51;;;;;;;11.55;3.63;;;;;;;-2.76;45.04;102959.25;7794373;29;20444;-68
2021/03/06 06:49:50;;;;;;;3.92;2.67;;;;;;;-2.75;44.89;102956.72;7794172;29;20051;-68
2021/03/06 06:53:40;;;;;;;6.07;3.30;;;;;;;-2.69;45.30;102967.16;7806839;29;20071;-69
2021/03/06 06:57:31;;;;;;;4.97;3.13;;;;;;;-2.62;45.07;102957.00;7800709;29;20032;-68
2021/03/06 07:01:36;;;;;;;7.47;3.90;;;;;;;-2.57;45.18;102961.41;7792886;29;20051;-68
2021/03/06 07:05:35;;;;;;;5.05;3.53;;;;;;;-2.52;45.50;102958.94;7794293;29;20207;-69
2021/03/06 07:09:26;;;;;;;7.15;3.15;;;;;;;-2.42;45.50;102972.03;7793701;29;20060;-69
2021/03/06 07:13:18;;;;;;;5.72;2.78;;;;;;;-2.18;45.40;102984.50;7814438;29;20051;-69
2021/03/06 07:17:09;;;;;;;6.18;3.10;;;;;;;-1.78;45.31;102976.75;7824643;29;20043;-70
2021/03/06 07:20:59;;;;;;;6.13;3.70;;;;;;;-1.26;45.62;102969.88;7818180;28;20084;-70
2021/03/06 07:24:50;;;;;;;6.25;3.22;;;;;;;-0.77;45.89;102986.97;7813772;29;20094;-68
2021/03/06 07:28:40;;;;;;;5.05;3.08;;;;;;;-0.28;46.10;102982.47;7809402;29;20052;-70
2021/03/06 07:32:36;;;;;;;6.85;4.13;;;;;;;0.36;46.17;102981.47;7807079;29;20425;-68
2021/03/06 07:36:27;;;;;;;6.93;4.00;;;;;;;0.90;45.69;102987.16;7793510;29;20178;-68
2021/03/06 07:40:18;;;;;;;8.55;4.32;;;;;;;1.43;45.92;102979.72;7792509;29;20358;-72
2021/03/06 07:44:11;;;;;;;5.95;3.95;;;;;;;2.08;46.15;102988.63;7791614;29;20040;-70
2021/03/06 07:48:12;;;;;;;6.07;3.90;;;;;;;2.77;45.88;102987.84;7791505;29;20086;-69
2021/03/06 07:52:03;;;;;;;10.95;4.53;;;;;;;3.47;45.33;102993.81;7791131;29;20036;-68
2021/03/06 07:55:54;;;;;;;6.57;3.33;;;;;;;4.19;44.99;102987.41;7821197;29;20067;-69
2021/03/06 07:59:55;;;;;;;7.82;4.35;;;;;;;4.93;44.79;102992.97;7822417;29;20078;-66
2021/03/06 08:03:45;;;;;;;7.85;4.50;;;;;;;5.79;44.70;102985.97;7821673;29;20050;-68
2021/03/06 08:07:38;;;;;;;9.18;4.03;;;;;;;6.83;44.43;102994.03;7805354;29;20036;-67
2021/03/06 08:11:34;;;;;;;8.20;3.38;;;;;;;8.11;43.35;102990.66;7821606;29;20031;-65
2021/03/06 08:15:24;;;;;;;6.53;4.03;;;;;;;9.26;42.63;102990.38;7820390;29;20044;-68
2021/03/06 08:19:16;;;;;;;6.30;3.25;;;;;;;10.28;41.93;102986.56;7817736;29;20043;-66
2021/03/06 08:23:20;;;;;;;4.40;3.08;;;;;;;11.24;41.00;102986.84;7811747;29;20040;-67
2021/03/06 08:27:13;;;;;;;5.10;3.65;;;;;;;12.42;41.00;102982.34;7796803;29;20464;-66
2021/03/06 08:31:44;;;;;;;5.60;3.38;;;;;;;13.98;39.42;102988.69;7790072;29;20067;-68
2021/03/06 08:35:35;;;;;;;4.88;3.25;;;;;;;15.40;38.47;102985.09;7790971;29;20067;-67
2021/03/06 08:39:26;;;;;;;6.28;3.60;;;;;;;16.53;37.75;102976.06;7791211;29;20055;-67
2021/03/06 08:43:18;;;;;;;4.72;2.90;;;;;;;17.70;36.23;102984.03;7790986;29;20533;-70
2021/03/06 08:47:09;;;;;;;7.20;3.70;;;;;;;18.32;35.67;102975.53;7789910;29;20048;-67
2021/03/06 08:51:00;;;;;;;7.60;4.15;;;;;;;18.76;35.13;102966.41;7789878;29;20436;-67
2021/03/06 08:54:51;;;;;;;4.43;3.10;;;;;;;19.09;34.88;102971.25;7824772;29;20057;-68
2021/03/06 08:58:47;;;;;;;4.53;2.67;;;;;;;19.62;33.34;102968.34;7804336;29;20043;-67
2021/03/06 09:02:38;;;;;;;5.63;3.20;;;;;;;20.02;33.66;102965.47;7826935;28;20442;-67
2021/03/06 09:06:41;;;;;;;4.13;2.88;;;;;;;20.25;32.30;102965.50;7826515;29;20503;-68
2021/03/06 09:10:41;;;;;;;5.63;2.70;;;;;;;20.47;32.21;102961.22;7827549;29;20433;-68
2021/03/06 09:14:32;;;;;;;4.82;2.95;;;;;;;20.65;32.28;102955.34;7832701;29;20500;-67
2021/03/06 09:18:25;;;;;;;5.93;2.60;;;;;;;20.90;31.46;102970.34;7823267;28;20036;-67
2021/03/06 09:22:16;;;;;;;5.35;2.60;;;;;;;21.03;31.41;102965.75;7820327;29;20036;-67
2021/03/06 09:26:13;;;;;;;4.80;2.70;;;;;;;21.01;30.69;102972.16;7816734;29;20023;-67
2021/03/06 09:30:22;;;;;;;3.75;2.15;;;;;;;21.02;30.23;102973.88;7819147;29;20032;-67
2021/03/06 09:34:12;;;;;;;3.28;2.00;;;;;;;21.00;30.28;102978.50;7824609;29;20146;-67
2021/03/06 09:38:10;;;;;;;4.70;2.30;;;;;;;20.76;29.61;102973.22;7802350;29;20031;-67
2021/03/06 09:42:00;;;;;;;4.10;2.40;;;;;;;20.27;30.17;102974.22;7814980;29;20591;-67
2021/03/06 09:45:51;;;;;;;4.93;2.60;;;;;;;19.09;30.56;102973.91;7815227;28;20048;-67
2021/03/06 09:49:42;;;;;;;3.28;2.25;;;;;;;17.79;30.36;102972.84;7815463;29;20067;-67
2021/03/06 09:53:33;;;;;;;6.32;3.17;;;;;;;16.48;30.59;102975.50;7818436;29;20049;-67
2021/03/06 09:57:24;;;;;;;4.85;2.67;;;;;;;15.32;30.65;102982.88;7817246;28;20039;-66
2021/03/06 10:01:20;;;;;;;5.15;2.72;;;;;;;14.27;30.79;102976.72;7817504;28;20036;-66
2021/03/06 10:05:11;;;;;;;3.00;2.33;;;;;;;13.32;31.37;102964.41;7816425;28;20039;-70
2021/03/06 10:09:07;;;;;;;3.25;2.15;;;;;;;12.56;31.50;102963.34;7812822;28;20067;-67
2021/03/06 10:12:58;;;;;;;6.20;2.88;;;;;;;11.82;31.74;102962.75;7808313;29;20032;-68
2021/03/06 10:16:52;;;;;;;4.35;2.53;;;;;;;11.22;32.15;102957.97;7812053;28;20052;-69
2021/03/06 10:20:43;;;;;;;2.95;2.50;;;;;;;10.69;32.51;102963.28;7813539;29;20047;-66
2021/03/06 10:24:58;;;;;;;3.28;2.30;;;;;;;10.19;32.76;102964.06;7814546;29;20055;-70
2021/03/06 10:29:00;;;;;;;6.07;2.65;;;;;;;9.75;32.80;102962.78;7814929;29;20043;-67
2021/03/06 10:32:52;;;;;;;6.22;2.83;;;;;;;9.47;32.99;102961.88;7813661;28;20048;-68
2021/03/06 10:36:43;;;;;;;3.88;2.50;;;;;;;9.18;33.29;102953.03;7815130;29;20039;-67
2021/03/06 10:40:39;;;;;;;3.42;2.60;;;;;;;8.99;33.46;102958.81;7815087;29;20070;-66
2021/03/06 10:44:41;;;;;;;6.97;2.78;;;;;;;8.79;33.70;102946.19;7816012;29;20039;-66
2021/03/06 10:48:32;;;;;;;7.03;2.85;;;;;;;8.63;33.62;102943.13;7814049;29;20044;-67
2021/03/06 10:52:26;;;;;;;4.38;2.63;;;;;;;8.51;33.83;102945.19;7812157;29;20130;-69
2021/03/06 10:56:20;;;;;;;4.80;2.20;;;;;;;8.36;34.05;102938.56;7814451;29;20123;-66
2021/03/06 11:00:22;;;;;;;16.88;2.28;;;;;;;8.19;33.70;102938.09;7814435;29;20114;-65
2021/03/06 11:04:31;;;;;;;2.67;1.40;;;;;;;8.03;33.58;102941.94;7814126;29;20485;-66
2021/03/06 11:08:22;;;;;;;5.93;1.55;;;;;;;7.93;33.93;102947.38;7814330;29;20040;-68
2021/03/06 11:12:19;;;;;;;4.45;1.70;;;;;;;7.85;33.64;102935.34;7814664;29;20043;-67
2021/03/06 11:16:14;;;;;;;2.25;1.65;;;;;;;7.76;33.82;102939.03;7815210;28;20146;-66
2021/03/06 11:20:06;;;;;;;2.47;1.48;;;;;;;7.72;33.84;102934.75;7813980;29;20504;-71
2021/03/06 11:23:57;;;;;;;2.20;1.40;;;;;;;7.66;33.38;102926.19;7815491;29;20031;-66
2021/03/06 11:27:47;;;;;;;2.92;1.33;;;;;;;7.61;33.32;102921.06;7814613;29;20114;-67
2021/03/06 11:31:39;;;;;;;2.38;1.27;;;;;;;7.56;33.60;102915.06;7810799;29;20471;-65
2021/03/06 11:35:30;;;;;;;31.45;10.40;;;;;;;7.50;33.78;102913.41;7812055;29;20503;-66
2021/03/06 11:39:21;;;;;;;11.30;4.22;;;;;;;7.45;33.47;102909.19;7813381;29;20039;-69
2021/03/06 11:43:13;;;;;;;6.15;2.60;;;;;;;7.44;33.94;102899.63;7815281;29;20507;-68
2021/03/06 11:47:04;;;;;;;4.03;1.80;;;;;;;7.42;34.07;102898.81;7812660;29;20043;-65
2021/03/06 11:50:54;;;;;;;2.50;1.48;;;;;;;7.42;33.76;102894.41;7812010;29;20400;-69
2021/03/06 11:54:45;;;;;;;5.18;1.90;;;;;;;7.39;33.65;102893.63;7814714;29;20415;-66
2021/03/06 11:58:35;;;;;;;4.38;1.83;;;;;;;7.34;34.05;102888.47;7812915;29;20035;-70
2021/03/06 12:02:27;;;;;;;2.60;1.80;;;;;;;7.32;34.23;102878.97;7811905;28;20125;-66
2021/03/06 12:06:18;;;;;;;4.15;1.42;;;;;;;7.31;34.07;102869.38;7814495;29;20040;-66
2021/03/06 12:10:11;;;;;;;5.25;1.65;;;;;;;7.26;33.97;102858.16;7812122;29;20429;-67
2021/03/06 12:14:02;;;;;;;1.35;1.17;;;;;;;7.27;33.80;102858.16;7812756;29;20484;-68
2021/03/06 12:17:54;;;;;;;2.53;1.20;;;;;;;7.26;34.00;102852.94;7812149;29;20130;-70
2021/03/06 12:21:45;;;;;;;1.90;1.20;;;;;;;7.23;34.09;102842.56;7813054;29;20099;-66
2021/03/06 12:25:36;;;;;;;2.95;1.20;;;;;;;7.27;33.97;102834.63;7810527;29;20039;-71
2021/03/06 12:29:27;;;;;;;2.88;1.45;;;;;;;7.23;34.15;102827.72;7810305;29;20527;-67
2021/03/06 12:33:17;;;;;;;1.77;1.30;;;;;;;7.25;34.01;102830.31;7811571;28;20040;-66
2021/03/06 12:37:08;;;;;;;1.83;1.40;;;;;;;7.19;33.88;102814.75;7811381;29;20054;-67
2021/03/06 12:40:59;;;;;;;5.07;1.25;;;;;;;7.21;33.70;102829.53;7813144;29;20020;-67
2021/03/06 12:44:50;;;;;;;1.65;1.00;;;;;;;7.16;33.53;102820.06;7811038;29;20027;-66
2021/03/06 12:48:40;;;;;;;2.42;1.25;;;;;;;7.11;33.68;102812.31;7810110;29;20054;-69
2021/03/06 12:52:31;;;;;;;1.25;1.00;;;;;;;7.09;33.99;102808.00;7812448;29;20044;-68
2021/03/06 12:56:21;;;;;;;1.42;1.20;;;;;;;7.05;33.78;102796.75;7811351;29;20134;-68
2021/03/06 13:00:13;;;;;;;2.00;1.30;;;;;;;7.03;33.37;102802.03;7814178;28;20032;-67
2021/03/06 13:04:04;;;;;;;2.42;1.20;;;;;;;6.99;33.71;102799.50;7810133;29;20539;-68
2021/03/06 13:07:55;;;;;;;4.78;1.45;;;;;;;6.90;33.67;102791.84;7811733;29;20128;-66
2021/03/06 13:11:45;;;;;;;1.98;1.40;;;;;;;6.92;33.58;102795.28;7811357;28;20048;-67
2021/03/06 13:15:36;;;;;;;1.67;1.15;;;;;;;6.90;33.81;102789.22;7806212;29;20043;-68
2021/03/06 13:19:26;;;;;;;2.15;1.20;;;;;;;6.89;33.68;102782.28;7807758;29;20035;-66
2021/03/06 13:23:17;;;;;;;2.97;1.40;;;;;;;6.88;33.49;102780.56;7807030;29;20421;-66
2021/03/06 13:27:07;;;;;;;1.40;1.20;;;;;;;6.87;33.90;102768.41;7810711;29;20043;-72
2021/03/06 13:30:58;;;;;;;2.28;1.60;;;;;;;6.82;33.58;102763.25;7809589;29;20190;-70
2021/03/06 13:34:49;;;;;;;2.58;1.80;;;;;;;6.84;33.46;102750.19;7811402;29;20047;-67
2021/03/06 13:38:40;;;;;;;1.38;1.13;;;;;;;6.79;33.63;102749.41;7807187;29;20464;-66
2021/03/06 13:42:30;;;;;;;4.32;1.40;;;;;;;6.81;33.97;102739.78;7811764;29;20040;-69
2021/03/06 13:46:21;;;;;;;2.15;1.10;;;;;;;6.80;33.37;102727.63;7811191;28;20054;-71
2021/03/06 13:50:13;;;;;;;1.90;1.38;;;;;;;6.83;34.09;102727.56;7810811;29;20051;-69
2021/03/06 13:54:04;;;;;;;2.58;1.35;;;;;;;6.84;33.79;102724.06;7811356;29;20042;-67
2021/03/06 13:57:55;;;;;;;2.05;1.33;;;;;;;6.83;33.89;102719.72;7810381;28;20052;-67
2021/03/06 14:01:45;;;;;;;2.45;1.42;;;;;;;6.81;33.82;102713.66;7808399;28;20075;-69
2021/03/06 14:05:36;;;;;;;5.93;1.73;;;;;;;6.82;33.81;102715.38;7811513;29;20031;-71
2021/03/06 14:09:27;;;;;;;2.47;1.52;;;;;;;6.79;34.06;102710.22;7808673;29;20054;-68
2021/03/06 14:13:17;;;;;;;4.10;1.55;;;;;;;6.74;33.78;102704.22;7809920;29;20044;-71
2021/03/06 14:17:08;;;;;;;2.75;1.40;;;;;;;6.73;34.17;102700.75;7809424;29;20447;-68
2021/03/06 14:20:59;;;;;;;2.85;1.90;;;;;;;6.75;34.04;102695.50;7812703;29;20035;-68
2021/03/06 14:24:50;;;;;;;3.42;1.77;;;;;;;6.74;33.66;102699.00;7809628;29;20031;-67
2021/03/06 14:28:40;;;;;;;1.83;1.45;;;;;;;6.68;33.94;102694.72;7811332;29;20126;-68
2021/03/06 14:32:31;;;;;;;7.85;1.60;;;;;;;6.66;34.06;102688.69;7814826;28;20070;-69
2021/03/06 14:36:21;;;;;;;2.65;1.50;;;;;;;6.65;34.17;102686.09;7811255;29;20051;-67
2021/03/06 14:40:12;;;;;;;4.28;1.60;;;;;;;6.64;34.29;102687.00;7813654;29;20840;-68
2021/03/06 14:44:05;;;;;;;3.08;1.67;;;;;;;6.63;33.97;102686.16;7812839;29;20028;-69
2021/03/06 14:47:55;;;;;;;4.80;1.80;;;;;;;6.60;34.04;102680.97;7815434;29;20050;-70
2021/03/06 14:51:46;;;;;;;3.03;1.25;;;;;;;6.58;34.05;102667.09;7815539;29;20039;-70
2021/03/06 14:55:37;;;;;;;3.28;1.52;;;;;;;6.57;34.20;102668.00;7813242;29;20676;-67
2021/03/06 14:59:28;;;;;;;4.30;1.90;;;;;;;6.57;34.52;102668.00;7812559;29;20032;-68
2021/03/06 15:03:18;;;;;;;3.33;1.80;;;;;;;6.58;34.66;102661.88;7815670;28;20582;-68
2021/03/06 15:07:09;;;;;;;3.30;1.63;;;;;;;6.58;34.64;102664.50;7810528;29;20035;-68
2021/03/06 15:11:00;;;;;;;2.63;1.40;;;;;;;6.57;34.47;102663.63;7812513;29;20035;-68
2021/03/06 15:14:50;;;;;;;3.00;1.75;;;;;;;6.57;34.49;102654.94;7812435;29;20040;-68
2021/03/06 15:18:41;;;;;;;2.10;1.63;;;;;;;6.57;34.80;102647.97;7811062;29;20044;-68
2021/03/06 15:22:33;;;;;;;5.22;1.70;;;;;;;6.55;34.67;102647.13;7811801;29;20126;-69
2021/03/06 15:26:26;;;;;;;4.72;1.70;;;;;;;6.55;34.75;102647.13;7816576;28;20059;-69
2021/03/06 15:30:16;;;;;;;2.85;1.80;;;;;;;6.56;34.60;102653.22;7812092;29;20121;-66
2021/03/06 15:34:07;;;;;;;4.43;1.80;;;;;;;6.55;34.52;102654.13;7809068;29;20066;-67
2021/03/06 15:38:01;;;;;;;2.25;1.95;;;;;;;6.50;34.58;102645.53;7813346;28;20036;-65
2021/03/06 15:41:52;;;;;;;2.88;1.90;;;;;;;6.51;35.14;102647.25;7814656;28;20062;-68
2021/03/06 15:45:42;;;;;;;6.22;2.10;;;;;;;6.48;34.61;102639.47;7810576;28;20490;-69
2021/03/06 15:49:33;;;;;;;5.97;2.42;;;;;;;6.45;34.61;102635.16;7812085;29;20042;-70
2021/03/06 15:53:23;;;;;;;1.90;1.65;;;;;;;6.45;34.95;102634.31;7808849;28;20051;-68
2021/03/06 15:57:14;;;;;;;4.53;1.77;;;;;;;6.43;34.76;102634.31;7811562;28;20058;-67
2021/03/06 16:01:04;;;;;;;3.50;1.80;;;;;;;6.42;34.91;102634.38;7811736;29;20044;-69
2021/03/06 16:04:55;;;;;;;3.92;2.20;;;;;;;6.41;35.10;102637.88;7806700;28;21146;-67
2021/03/06 16:08:46;;;;;;;4.32;1.80;;;;;;;6.38;34.61;102632.72;7817273;28;20039;-68
2021/03/06 16:12:36;;;;;;;4.38;1.85;;;;;;;6.32;34.87;102628.47;7814893;29;20059;-71
2021/03/06 16:16:27;;;;;;;4.63;2.03;;;;;;;6.29;34.84;102631.16;7805601;28;20691;-67
2021/03/06 16:20:17;;;;;;;3.58;2.15;;;;;;;6.23;34.76;102625.19;7805261;28;20055;-67
2021/03/06 16:24:09;;;;;;;5.18;2.00;;;;;;;6.24;34.90;102624.31;7807422;29;20036;-68
2021/03/06 16:27:59;;;;;;;2.42;1.70;;;;;;;6.23;35.21;102626.06;7811089;28;20034;-71
2021/03/06 16:31:50;;;;;;;4.18;1.80;;;;;;;6.20;35.14;102628.72;7808666;29;20043;-67
2021/03/06 16:35:41;;;;;;;3.28;1.80;;;;;;;6.11;35.37;102618.47;7813512;29;20038;-67
2021/03/06 16:39:31;;;;;;;4.45;1.85;;;;;;;6.12;35.09;102620.19;7810160;29;20028;-70
2021/03/06 16:43:26;;;;;;;4.60;1.88;;;;;;;6.08;35.11;102622.00;7810576;29;20057;-67
2021/03/06 16:47:17;;;;;;;3.15;1.85;;;;;;;6.03;34.96;102620.38;7808957;29;20048;-67
2021/03/06 16:51:08;;;;;;;2.63;1.48;;;;;;;6.02;35.17;102626.47;7807443;29;20098;-68
2021/03/06 16:54:58;;;;;;;3.92;2.05;;;;;;;5.97;35.15;102620.50;7810889;29;20067;-68
2021/03/06 16:58:49;;;;;;;4.30;1.90;;;;;;;5.90;35.14;102618.88;7810708;29;20050;-71
2021/03/06 17:02:42;;;;;;;5.05;2.35;;;;;;;5.85;35.17;102624.19;7811654;28;21188;-68
2021/03/06 17:06:33;;;;;;;6.35;1.90;;;;;;;5.80;35.29;102617.34;7811021;28;20055;-70
2021/03/06 17:10:25;;;;;;;3.42;1.80;;;;;;;5.75;35.22;102621.78;7807374;29;20091;-70
2021/03/06 17:14:15;;;;;;;5.75;2.15;;;;;;;5.66;35.59;102620.19;7808570;29;20032;-70
2021/03/06 17:18:06;;;;;;;3.13;1.77;;;;;;;5.61;35.37;102620.28;7808539;29;20051;-68
2021/03/06 17:21:56;;;;;;;2.50;1.88;;;;;;;5.54;35.63;102626.50;7809144;29;20024;-69
2021/03/06 17:25:47;;;;;;;5.85;1.98;;;;;;;5.48;35.75;102628.34;7810080;29;20056;-68
2021/03/06 17:29:38;;;;;;;5.40;2.50;;;;;;;5.41;35.50;102626.72;7809030;29;20531;-67
2021/03/06 17:33:28;;;;;;;3.33;2.28;;;;;;;5.33;35.64;102621.66;7811373;28;20061;-67
2021/03/06 17:37:19;;;;;;;6.05;2.80;;;;;;;5.24;35.62;102618.31;7808617;28;20046;-68
2021/03/06 17:41:09;;;;;;;7.70;2.88;;;;;;;5.19;36.00;102629.66;7807826;29;20047;-68
2021/03/06 17:45:00;;;;;;;4.20;3.00;;;;;;;5.10;35.80;102632.38;7807271;29;20032;-68
2021/03/06 17:48:51;;;;;;;3.53;2.33;;;;;;;5.02;36.04;102633.41;7810705;29;20048;-69
2021/03/06 17:52:43;;;;;;;6.47;2.90;;;;;;;4.93;36.16;102624.00;7809943;29;20057;-70
2021/03/06 17:56:49;;;;;;;5.72;2.08;;;;;;;4.84;36.08;102628.47;7825538;29;20031;-71
2021/03/06 18:00:40;;;;;;;3.22;2.25;;;;;;;4.76;36.08;102633.78;7828104;29;20042;-70
2021/03/06 18:04:31;;;;;;;9.18;2.22;;;;;;;4.63;36.43;102630.50;7832589;28;20043;-70
2021/03/06 18:08:21;;;;;;;4.22;2.40;;;;;;;4.59;36.25;102631.41;7828091;29;20754;-72